createdAt,value
2019-01-28T00:00:44.905Z,3.90
2019-01-28T00:03:17.328Z,4.03
2019-01-28T00:05:49.732Z,4.57
2019-01-28T00:08:22.219Z,4.10
2019-01-28T00:10:54.445Z,4.50
2019-01-28T00:13:26.790Z,4.03
2019-01-28T00:15:59.483Z,4.07
2019-01-28T00:18:31.826Z,4.57
2019-01-28T00:21:04.230Z,6.27
2019-01-28T00:23:36.545Z,5.97
2019-01-28T00:26:08.786Z,5.17
2019-01-28T00:28:40.982Z,4.73
2019-01-28T00:31:13.851Z,5.70
2019-01-28T00:33:46.809Z,5.47
2019-01-28T00:36:19.533Z,6.40
2019-01-28T00:38:51.914Z,4.93
2019-01-28T00:41:24.621Z,4.67
2019-01-28T00:43:56.947Z,5.70
2019-01-28T00:46:29.435Z,5.37
2019-01-28T00:49:01.735Z,4.23
2019-01-28T00:51:34.215Z,5.43
2019-01-28T00:54:06.568Z,7.60
2019-01-28T00:56:38.923Z,5.07
2019-01-28T00:59:11.209Z,6.40
2019-01-28T01:01:43.448Z,4.67
2019-01-28T01:04:15.820Z,5.53
2019-01-28T01:06:48.301Z,5.50
2019-01-28T01:09:20.503Z,5.43
2019-01-28T01:11:53.022Z,4.67
2019-01-28T01:14:25.328Z,5.63
2019-01-28T01:16:57.652Z,5.70
2019-01-28T01:19:30.429Z,6.33
2019-01-28T01:22:02.750Z,5.63
2019-01-28T01:24:35.309Z,5.37
2019-01-28T01:27:07.601Z,6.10
2019-01-28T01:29:40.008Z,6.57
2019-01-28T01:32:12.448Z,5.37
2019-01-28T01:34:45.220Z,5.93
2019-01-28T01:37:17.353Z,6.13
2019-01-28T01:39:49.478Z,7.33
2019-01-28T01:42:21.930Z,7.60
2019-01-28T01:44:54.157Z,7.03
2019-01-28T01:47:26.503Z,6.63
2019-01-28T01:49:59.110Z,7.40
2019-01-28T01:52:31.603Z,7.10
2019-01-28T01:55:04.748Z,8.10
2019-01-28T01:57:37.073Z,7.77
2019-01-28T02:00:12.044Z,7.60
2019-01-28T02:02:44.453Z,6.77
2019-01-28T02:05:17.281Z,7.30
2019-01-28T02:07:49.738Z,7.60
2019-01-28T02:10:22.274Z,7.83
2019-01-28T02:12:54.605Z,7.53
2019-01-28T02:15:26.961Z,8.13
2019-01-28T02:17:59.361Z,8.10
2019-01-28T02:20:31.990Z,8.00
2019-01-28T02:23:04.210Z,8.43
2019-01-28T02:25:36.447Z,8.83
2019-01-28T02:28:08.646Z,7.50
2019-01-28T02:30:41.077Z,8.67
2019-01-28T02:33:13.175Z,9.53
2019-01-28T02:35:45.600Z,10.03
2019-01-28T02:38:18.053Z,9.77
2019-01-28T02:40:50.845Z,9.73
2019-01-28T02:43:23.053Z,8.20
2019-01-28T02:45:55.346Z,9.23
2019-01-28T02:48:27.718Z,8.93
2019-01-28T02:51:00.169Z,8.67
2019-01-28T02:53:32.355Z,10.57
2019-01-28T02:56:04.761Z,9.37
2019-01-28T02:58:36.866Z,10.07
2019-01-28T03:01:09.312Z,9.80
2019-01-28T03:03:41.610Z,8.53
2019-01-28T03:06:14.035Z,11.73
2019-01-28T03:08:46.836Z,7.47
2019-01-28T03:11:19.420Z,8.57
2019-01-28T03:13:51.750Z,6.77
2019-01-28T03:16:24.058Z,9.97
2019-01-28T03:18:56.140Z,7.10
2019-01-28T03:21:28.462Z,7.73
2019-01-28T03:24:00.667Z,6.87
2019-01-28T03:26:32.960Z,7.17
2019-01-28T03:29:05.232Z,6.97
2019-01-28T03:31:37.744Z,8.53
2019-01-28T03:34:10.500Z,5.03
2019-01-28T03:36:42.745Z,6.70
2019-01-28T03:39:15.030Z,9.87
2019-01-28T03:41:47.724Z,7.27
2019-01-28T03:44:20.040Z,8.80
2019-01-28T03:46:52.311Z,6.30
2019-01-28T03:49:24.648Z,7.57
2019-01-28T03:51:57.362Z,8.70
2019-01-28T03:54:29.834Z,7.03
2019-01-28T03:57:02.119Z,6.43
2019-01-28T03:59:34.696Z,3.33
2019-01-28T04:02:07.670Z,4.30
2019-01-28T04:04:39.977Z,2.23
2019-01-28T04:07:12.485Z,3.17
2019-01-28T04:09:44.780Z,9.73
2019-01-28T04:12:17.139Z,2.73
2019-01-28T04:14:49.417Z,5.00
2019-01-28T04:17:21.861Z,2.97
2019-01-28T04:19:54.145Z,5.43
2019-01-28T04:22:26.460Z,5.53
2019-01-28T04:24:58.940Z,7.77
2019-01-28T04:27:31.368Z,4.53
2019-01-28T04:30:05.988Z,1.47
2019-01-28T04:32:38.224Z,1.97
2019-01-28T04:35:10.520Z,4.80
2019-01-28T04:37:42.945Z,6.30
2019-01-28T04:40:15.258Z,3.80
2019-01-28T04:42:47.568Z,6.07
2019-01-28T04:45:19.779Z,3.33
2019-01-28T04:47:52.151Z,5.87
2019-01-28T04:50:24.438Z,2.53
2019-01-28T04:52:56.824Z,3.57
2019-01-28T04:55:29.275Z,6.60
2019-01-28T04:58:01.697Z,6.67
2019-01-28T05:00:33.986Z,4.30
2019-01-28T05:03:06.420Z,2.90
2019-01-28T05:05:38.739Z,4.70
2019-01-28T05:08:11.067Z,3.80
2019-01-28T05:10:43.381Z,5.77
2019-01-28T05:13:15.762Z,6.47
2019-01-28T05:15:48.020Z,4.10
2019-01-28T05:18:20.723Z,7.10
2019-01-28T05:20:53.095Z,5.03
2019-01-28T05:23:25.492Z,6.90
2019-01-28T05:25:58.160Z,7.63
2019-01-28T05:28:30.516Z,8.70
2019-01-28T05:31:02.896Z,8.43
2019-01-28T05:33:35.510Z,7.53
2019-01-28T05:36:07.767Z,6.03
2019-01-28T05:38:40.079Z,6.60
2019-01-28T05:41:12.575Z,7.70
2019-01-28T05:43:45.063Z,8.77
2019-01-28T05:46:17.613Z,7.20
2019-01-28T05:48:49.932Z,10.73
2019-01-28T05:51:22.227Z,8.50
2019-01-28T05:53:54.680Z,8.57
2019-01-28T05:56:27.060Z,5.90
2019-01-28T05:58:59.205Z,9.57
2019-01-28T06:01:31.437Z,9.83
2019-01-28T06:04:04.141Z,8.97
2019-01-28T06:06:36.681Z,10.03
2019-01-28T06:09:09.430Z,6.50
2019-01-28T06:11:41.792Z,10.30
2019-01-28T06:14:14.446Z,8.07
2019-01-28T06:16:47.339Z,7.07
2019-01-28T06:19:19.736Z,7.37
2019-01-28T06:21:52.184Z,8.73
2019-01-28T06:24:24.504Z,8.20
2019-01-28T06:26:56.999Z,11.47
2019-01-28T06:29:29.174Z,10.93
2019-01-28T06:32:01.844Z,10.87
2019-01-28T06:34:38.201Z,12.37
2019-01-28T06:37:12.104Z,10.47
2019-01-28T06:39:44.469Z,10.10
2019-01-28T06:42:16.752Z,8.97
2019-01-28T06:44:49.557Z,6.50
2019-01-28T06:47:21.920Z,8.53
2019-01-28T06:49:54.481Z,6.40
2019-01-28T06:52:26.992Z,8.53
2019-01-28T06:54:59.537Z,10.07
2019-01-28T06:57:32.166Z,6.13
2019-01-28T07:00:07.454Z,11.87
2019-01-28T07:02:40.635Z,10.73
2019-01-28T07:05:13.020Z,9.30
2019-01-28T07:07:45.426Z,13.67
2019-01-28T07:10:18.004Z,8.47
2019-01-28T07:12:50.329Z,11.10
2019-01-28T07:15:22.870Z,7.70
2019-01-28T07:17:55.456Z,7.47
2019-01-28T07:20:30.982Z,7.30
2019-01-28T07:23:03.657Z,9.37
2019-01-28T07:25:36.126Z,8.17
2019-01-28T07:28:08.427Z,10.67
2019-01-28T07:30:40.696Z,10.90
2019-01-28T07:33:12.957Z,13.13
2019-01-28T07:35:45.394Z,14.07
2019-01-28T07:38:17.713Z,13.90
2019-01-28T07:40:50.012Z,19.17
2019-01-28T07:43:22.676Z,16.30
2019-01-28T07:45:55.002Z,14.17
2019-01-28T07:48:27.673Z,13.60
2019-01-28T07:51:00.279Z,15.07
2019-01-28T07:53:32.589Z,14.23
2019-01-28T07:56:05.038Z,15.13
2019-01-28T07:58:37.520Z,13.30
2019-01-28T08:01:10.214Z,16.37
2019-01-28T08:03:42.600Z,14.53
2019-01-28T08:06:14.925Z,10.30
2019-01-28T08:08:47.237Z,10.27
2019-01-28T08:11:19.456Z,11.87
2019-01-28T08:13:52.497Z,12.13
2019-01-28T08:16:25.223Z,12.37
2019-01-28T08:18:57.778Z,11.40
2019-01-28T08:21:30.118Z,13.30
2019-01-28T08:24:02.552Z,14.30
2019-01-28T08:26:35.008Z,13.47
2019-01-28T08:29:07.609Z,13.90
2019-01-28T08:31:39.811Z,15.27
2019-01-28T08:34:12.564Z,13.23
2019-01-28T08:36:45.144Z,12.43
2019-01-28T08:39:17.548Z,14.93
2019-01-28T08:41:49.993Z,10.20
2019-01-28T08:44:22.307Z,13.50
2019-01-28T08:46:54.784Z,17.83
2019-01-28T08:49:27.056Z,13.37
2019-01-28T08:51:59.499Z,10.07
2019-01-28T08:54:31.867Z,9.67
2019-01-28T08:57:04.276Z,13.30
2019-01-28T08:59:36.737Z,10.00
2019-01-28T09:02:09.436Z,14.37
2019-01-28T09:04:42.202Z,14.40
2019-01-28T09:07:14.625Z,14.23
2019-01-28T09:09:47.433Z,12.13
2019-01-28T09:12:22.709Z,11.13
2019-01-28T09:14:55.617Z,13.67
2019-01-28T09:17:28.189Z,12.37
2019-01-28T09:20:01.180Z,9.33
2019-01-28T09:22:33.575Z,14.27
2019-01-28T09:25:06.924Z,11.53
2019-01-28T09:27:39.335Z,9.67
2019-01-28T09:30:15.517Z,12.97
2019-01-28T09:32:47.853Z,10.63
2019-01-28T09:35:22.172Z,9.87
2019-01-28T09:37:54.561Z,13.27
2019-01-28T09:40:29.220Z,11.97
2019-01-28T09:43:01.641Z,10.00
2019-01-28T09:45:36.379Z,10.90
2019-01-28T09:48:11.381Z,11.33
2019-01-28T09:50:44.068Z,18.47
2019-01-28T09:53:16.503Z,57.73
2019-01-28T09:55:49.149Z,11.43
2019-01-28T09:58:21.714Z,26.43
2019-01-28T10:00:54.493Z,10.20
2019-01-28T10:03:26.884Z,10.77
2019-01-28T10:05:59.703Z,9.43
2019-01-28T10:08:31.932Z,14.17
2019-01-28T10:11:04.416Z,10.23
2019-01-28T10:13:36.730Z,8.70
2019-01-28T10:16:09.266Z,10.67
2019-01-28T10:18:42.165Z,16.93
2019-01-28T10:21:14.799Z,11.80
2019-01-28T10:23:47.114Z,8.60
2019-01-28T10:26:19.501Z,10.37
2019-01-28T10:28:52.703Z,7.53
2019-01-28T10:31:25.349Z,8.07
2019-01-28T10:33:59.677Z,10.50
2019-01-28T10:36:34.197Z,6.83
2019-01-28T10:39:08.759Z,8.50
2019-01-28T10:41:41.277Z,9.80
2019-01-28T10:44:13.886Z,7.10
2019-01-28T10:46:46.211Z,7.33
2019-01-28T10:49:18.580Z,6.83
2019-01-28T10:51:50.771Z,8.13
2019-01-28T10:54:23.101Z,7.80
2019-01-28T10:56:55.634Z,7.07
2019-01-28T10:59:27.876Z,5.77
2019-01-28T11:02:03.940Z,9.90
2019-01-28T11:04:36.386Z,6.10
2019-01-28T11:07:09.061Z,8.00
2019-01-28T11:09:41.507Z,7.40
2019-01-28T11:12:13.955Z,6.53
2019-01-28T11:14:46.439Z,10.40
2019-01-28T11:17:18.792Z,11.67
2019-01-28T11:19:51.930Z,11.23
2019-01-28T11:22:24.216Z,9.63
2019-01-28T11:24:57.048Z,12.90
2019-01-28T11:27:29.465Z,36.73
2019-01-28T11:30:02.022Z,10.97
2019-01-28T11:32:34.702Z,19.43
2019-01-28T11:35:07.408Z,13.03
2019-01-28T11:37:39.864Z,8.80
2019-01-28T11:40:13.720Z,11.67
2019-01-28T11:42:46.236Z,8.73
2019-01-28T11:45:22.299Z,8.03
2019-01-28T11:47:54.575Z,8.50
2019-01-28T11:50:27.129Z,6.33
2019-01-28T11:53:01.234Z,7.60
2019-01-28T11:55:33.949Z,22.80
2019-01-28T11:58:06.405Z,13.37
2019-01-28T12:00:56.981Z,6.00
2019-01-28T12:03:29.552Z,5.73
2019-01-28T12:06:02.496Z,7.60
2019-01-28T12:08:35.212Z,7.13
2019-01-28T12:11:07.599Z,7.00
2019-01-28T12:13:40.043Z,14.17
2019-01-28T12:16:12.372Z,24.73
2019-01-28T12:18:44.691Z,7.53
2019-01-28T12:21:17.243Z,7.53
2019-01-28T12:23:49.834Z,4.10
2019-01-28T12:26:22.257Z,4.67
2019-01-28T12:28:54.744Z,5.67
2019-01-28T12:31:27.237Z,6.53
2019-01-28T12:33:59.617Z,9.93
2019-01-28T12:36:32.056Z,7.63
2019-01-28T12:39:07.350Z,8.23
2019-01-28T12:41:47.221Z,13.77
2019-01-28T12:44:19.961Z,12.20
2019-01-28T12:46:52.635Z,9.30
2019-01-28T12:49:25.049Z,11.47
2019-01-28T12:51:57.563Z,8.83
2019-01-28T12:54:30.289Z,5.27
2019-01-28T12:57:02.635Z,5.37
2019-01-28T12:59:34.827Z,3.87
2019-01-28T13:02:07.305Z,5.23
2019-01-28T13:04:42.274Z,6.10
2019-01-28T13:07:13.969Z,5.90
2019-01-28T13:09:46.593Z,7.10
2019-01-28T13:12:18.990Z,8.00
2019-01-28T13:14:51.652Z,8.43
2019-01-28T13:17:27.200Z,4.23
2019-01-28T13:19:59.960Z,3.73
2019-01-28T13:22:32.230Z,4.87
2019-01-28T13:25:05.080Z,8.17
2019-01-28T13:27:37.736Z,6.90
2019-01-28T13:30:14.214Z,5.17
2019-01-28T13:32:47.151Z,3.33
2019-01-28T13:35:21.659Z,4.97
2019-01-28T13:37:54.658Z,3.67
2019-01-28T13:40:27.566Z,6.50
2019-01-28T13:43:00.172Z,7.27
2019-01-28T13:45:33.203Z,7.27
2019-01-28T13:48:08.598Z,5.97
2019-01-28T13:50:41.154Z,6.80
2019-01-28T13:53:13.647Z,6.03
2019-01-28T13:55:46.475Z,3.63
2019-01-28T13:58:18.924Z,5.97
2019-01-28T14:00:51.801Z,3.27
2019-01-28T14:03:24.858Z,6.43
2019-01-28T14:05:57.728Z,4.47
2019-01-28T14:08:30.483Z,4.20
2019-01-28T14:11:02.780Z,5.97
2019-01-28T14:13:35.430Z,4.50
2019-01-28T14:16:08.180Z,6.13
2019-01-28T14:18:43.828Z,26.53
2019-01-28T14:21:16.505Z,22.63
2019-01-28T14:23:49.471Z,20.43
2019-01-28T14:26:22.029Z,17.07
2019-01-28T14:28:54.758Z,11.10
2019-01-28T14:31:27.293Z,14.17
2019-01-28T14:33:59.382Z,5.47
2019-01-28T14:36:33.292Z,7.47
2019-01-28T14:39:13.547Z,4.93
2019-01-28T14:41:43.597Z,5.03
2019-01-28T14:44:15.908Z,6.60
2019-01-28T14:46:48.168Z,4.70
2019-01-28T14:49:20.762Z,10.67
2019-01-28T14:51:53.338Z,5.50
2019-01-28T14:54:26.194Z,4.00
2019-01-28T14:56:58.610Z,4.77
2019-01-28T14:59:31.260Z,4.07
2019-01-28T15:02:04.133Z,6.63
2019-01-28T15:04:36.741Z,4.97
2019-01-28T15:07:09.257Z,3.63
2019-01-28T15:09:42.187Z,7.67
2019-01-28T15:12:14.595Z,3.47
2019-01-28T15:14:46.825Z,4.10
2019-01-28T15:17:19.727Z,7.07
2019-01-28T15:19:53.532Z,5.47
2019-01-28T15:22:26.016Z,5.63
2019-01-28T15:24:58.596Z,3.13
2019-01-28T15:27:31.301Z,3.47
2019-01-28T15:30:07.426Z,3.23
2019-01-28T15:32:40.387Z,3.53
2019-01-28T15:35:13.358Z,12.80
2019-01-28T15:37:46.256Z,26.63
2019-01-28T15:40:21.472Z,10.77
2019-01-28T15:42:53.936Z,24.67
2019-01-28T15:45:28.853Z,6.43
2019-01-28T15:48:01.345Z,4.30
2019-01-28T15:50:33.939Z,4.80
2019-01-28T15:53:07.138Z,4.77
2019-01-28T15:55:41.303Z,6.07
2019-01-28T15:58:14.278Z,5.00
2019-01-28T16:00:46.917Z,4.97
2019-01-28T16:03:20.294Z,4.57
2019-01-28T16:05:52.690Z,3.60
2019-01-28T16:08:25.165Z,9.87
2019-01-28T16:10:58.002Z,13.17
2019-01-28T16:13:30.361Z,16.27
2019-01-28T16:16:03.340Z,20.23
2019-01-28T16:18:35.920Z,16.07
2019-01-28T16:21:08.723Z,23.73
2019-01-28T16:23:41.233Z,14.53
2019-01-28T16:26:13.585Z,10.33
2019-01-28T16:28:46.229Z,10.10
2019-01-28T16:31:18.749Z,10.23
2019-01-28T16:33:51.104Z,7.87
2019-01-28T16:36:23.443Z,8.27
2019-01-28T16:38:55.681Z,5.83
2019-01-28T16:41:27.995Z,11.97
2019-01-28T16:44:00.661Z,14.63
2019-01-28T16:46:32.959Z,12.57
2019-01-28T16:49:05.863Z,10.07
2019-01-28T16:51:38.536Z,4.97
2019-01-28T16:54:10.892Z,5.47
2019-01-28T16:56:43.316Z,5.07
2019-01-28T16:59:18.507Z,9.10
2019-01-28T17:01:51.169Z,5.77
2019-01-28T17:04:23.799Z,15.23
2019-01-28T17:06:56.125Z,24.00
2019-01-28T17:09:28.647Z,24.97
2019-01-28T17:12:00.961Z,16.93
2019-01-28T17:14:33.308Z,8.27
2019-01-28T17:17:05.938Z,8.67
2019-01-28T17:19:38.409Z,7.20
2019-01-28T17:22:10.668Z,8.13
2019-01-28T17:24:43.425Z,7.13
2019-01-28T17:27:15.987Z,4.97
2019-01-28T17:29:48.240Z,6.07
2019-01-28T17:32:20.815Z,5.27
2019-01-28T17:34:53.085Z,4.87
2019-01-28T17:37:25.273Z,7.60
2019-01-28T17:40:00.194Z,8.77
2019-01-28T17:42:33.015Z,8.53
2019-01-28T17:45:07.326Z,10.30
2019-01-28T17:47:39.821Z,29.20
2019-01-28T17:50:12.453Z,19.53
2019-01-28T17:52:45.134Z,9.23
2019-01-28T17:55:17.633Z,14.27
2019-01-28T17:57:49.992Z,10.47
2019-01-28T18:00:31.404Z,8.30
2019-01-28T18:03:05.135Z,7.17
2019-01-28T18:05:37.763Z,8.97
2019-01-28T18:08:10.067Z,11.00
2019-01-28T18:10:42.532Z,18.90
2019-01-28T18:13:15.211Z,15.10
2019-01-28T18:15:48.082Z,8.57
2019-01-28T18:18:20.606Z,8.53
2019-01-28T18:20:53.045Z,20.10
2019-01-28T18:23:48.145Z,13.00
2019-01-28T18:26:21.081Z,12.63
2019-01-28T18:28:53.408Z,8.77
2019-01-28T18:31:25.854Z,7.43
2019-01-28T18:33:58.196Z,23.13
2019-01-28T18:36:31.079Z,30.57
2019-01-28T18:39:09.372Z,17.80
2019-01-28T18:41:41.671Z,19.20
2019-01-28T18:44:14.034Z,13.37
2019-01-28T18:46:46.278Z,11.80
2019-01-28T18:49:19.122Z,9.60
2019-01-28T18:51:51.477Z,8.23
2019-01-28T18:54:23.967Z,7.20
2019-01-28T18:56:58.401Z,6.47
2019-01-28T18:59:30.733Z,9.23
2019-01-28T19:02:03.481Z,13.77
2019-01-28T19:04:35.926Z,8.77
2019-01-28T19:07:16.770Z,7.70
2019-01-28T19:09:58.806Z,8.17
2019-01-28T19:12:51.551Z,7.43
2019-01-28T19:15:36.604Z,9.50
2019-01-28T19:18:22.611Z,13.80
2019-01-28T19:21:17.436Z,12.60
2019-01-28T19:23:49.995Z,6.93
2019-01-28T19:26:22.307Z,6.73
2019-01-28T19:28:55.138Z,6.40
2019-01-28T19:31:27.725Z,7.87
2019-01-28T19:34:00.617Z,6.87
2019-01-28T19:36:32.932Z,7.47
2019-01-28T19:39:07.743Z,8.43
2019-01-28T19:41:40.316Z,6.67
2019-01-28T19:44:12.771Z,7.80
2019-01-28T19:46:45.226Z,7.30
2019-01-28T19:49:17.754Z,5.87
2019-01-28T19:51:50.112Z,6.50
2019-01-28T19:54:22.863Z,6.73
2019-01-28T19:56:55.968Z,7.07
2019-01-28T19:59:28.184Z,8.43
2019-01-28T20:02:00.596Z,7.80
2019-01-28T20:04:32.923Z,8.23
2019-01-28T20:07:05.542Z,8.00
2019-01-28T20:09:38.052Z,8.73
2019-01-28T20:12:10.408Z,10.37
2019-01-28T20:14:42.980Z,9.50
2019-01-28T20:17:15.654Z,9.23
2019-01-28T20:19:48.008Z,10.23
2019-01-28T20:22:21.025Z,9.13
2019-01-28T20:24:53.915Z,9.40
2019-01-28T20:27:28.912Z,10.40
2019-01-28T20:30:01.465Z,11.57
2019-01-28T20:32:34.165Z,10.53
2019-01-28T20:35:07.164Z,11.67
2019-01-28T20:37:39.466Z,11.03
2019-01-28T20:40:11.998Z,11.47
2019-01-28T20:42:44.559Z,11.23
2019-01-28T20:45:18.343Z,11.07
2019-01-28T20:47:50.774Z,12.63
2019-01-28T20:50:24.543Z,11.03
2019-01-28T20:52:56.849Z,12.87
2019-01-28T20:55:29.392Z,11.80
2019-01-28T20:58:02.059Z,17.03
2019-01-28T21:00:35.241Z,17.03
2019-01-28T21:03:07.652Z,14.23
2019-01-28T21:05:40.407Z,13.80
2019-01-28T21:08:12.582Z,13.80
2019-01-28T21:10:44.940Z,13.47
2019-01-28T21:13:17.159Z,15.90
2019-01-28T21:15:49.809Z,16.80
2019-01-28T21:18:22.253Z,13.53
2019-01-28T21:20:54.751Z,14.50
2019-01-28T21:23:26.924Z,13.50
2019-01-28T21:25:59.205Z,14.73
2019-01-28T21:28:31.389Z,12.27
2019-01-28T21:31:03.986Z,13.50
2019-01-28T21:33:36.487Z,15.17
2019-01-28T21:36:18.502Z,13.93
2019-01-28T21:38:52.200Z,14.43
2019-01-28T21:41:24.339Z,15.20
2019-01-28T21:43:56.730Z,12.90
2019-01-28T21:46:29.279Z,15.60
2019-01-28T21:49:02.123Z,13.47
2019-01-28T21:51:34.803Z,14.73
2019-01-28T21:54:07.037Z,18.17
2019-01-28T21:56:39.615Z,13.37
2019-01-28T21:59:12.102Z,14.87
2019-01-28T22:01:44.680Z,14.47
2019-01-28T22:04:17.139Z,17.30
2019-01-28T22:06:49.572Z,15.23
2019-01-28T22:09:22.027Z,18.17
2019-01-28T22:11:54.707Z,16.70
2019-01-28T22:14:26.905Z,15.53
2019-01-28T22:16:59.192Z,15.37
2019-01-28T22:19:31.534Z,18.43
2019-01-28T22:22:05.030Z,18.07
2019-01-28T22:24:37.256Z,16.37
2019-01-28T22:27:09.662Z,17.73
2019-01-28T22:29:41.877Z,18.73
2019-01-28T22:32:14.077Z,16.13
2019-01-28T22:34:47.848Z,18.07
2019-01-28T22:37:20.593Z,16.37
2019-01-28T22:39:52.792Z,19.00
2019-01-28T22:42:25.237Z,17.90
2019-01-28T22:44:57.721Z,17.53
2019-01-28T22:47:30.235Z,16.73
2019-01-28T22:50:03.721Z,17.53
2019-01-28T22:52:36.075Z,18.77
2019-01-28T22:55:09.310Z,17.10
2019-01-28T22:57:42.041Z,15.37
2019-01-28T23:00:39.004Z,14.73
2019-01-28T23:03:11.671Z,17.57
2019-01-28T23:05:44.114Z,15.50
2019-01-28T23:08:16.605Z,15.57
2019-01-28T23:10:49.119Z,16.80
2019-01-28T23:13:21.478Z,15.97
2019-01-28T23:15:53.810Z,17.07
2019-01-28T23:18:26.173Z,14.87
2019-01-28T23:20:58.756Z,15.63
2019-01-28T23:23:30.993Z,15.53
2019-01-28T23:26:04.003Z,14.77
2019-01-28T23:28:36.618Z,14.40
2019-01-28T23:31:09.339Z,15.83
2019-01-28T23:33:42.024Z,16.97
2019-01-28T23:36:14.420Z,14.93
2019-01-28T23:38:47.216Z,15.03
2019-01-28T23:41:20.944Z,13.63
2019-01-28T23:43:53.876Z,17.80
2019-01-28T23:46:26.129Z,16.33
2019-01-28T23:48:58.913Z,16.37
2019-01-28T23:51:32.276Z,15.27
2019-01-28T23:54:04.887Z,14.17
2019-01-28T23:56:37.403Z,16.07
2019-01-28T23:59:09.989Z,14.90
